sensor_id;sensor_type;location;lat;lon;timestamp;P1;durP1;ratioP1;P2;durP2;ratioP2
8327;SDS011;4201;48.754;8.864;2022-08-18T00:02:11;11.73;;;10.47;;
8327;SDS011;4201;48.754;8.864;2022-08-18T00:04:39;11.67;;;10.47;;
8327;SDS011;4201;48.754;8.864;2022-08-18T00:07:06;12.20;;;11.00;;
8327;SDS011;4201;48.754;8.864;2022-08-18T00:09:33;14.23;;;10.73;;
8327;SDS011;4201;48.754;8.864;2022-08-18T00:12:00;12.70;;;10.47;;
8327;SDS011;4201;48.754;8.864;2022-08-18T00:14:26;10.00;;;9.00;;
8327;SDS011;4201;48.754;8.864;2022-08-18T00:16:54;14.67;;;10.80;;
8327;SDS011;4201;48.754;8.864;2022-08-18T00:19:20;13.23;;;10.97;;
8327;SDS011;4201;48.754;8.864;2022-08-18T00:21:47;11.97;;;10.70;;
8327;SDS011;4201;48.754;8.864;2022-08-18T00:24:13;14.40;;;11.40;;
8327;SDS011;4201;48.754;8.864;2022-08-18T00:26:40;10.80;;;9.70;;
8327;SDS011;4201;48.754;8.864;2022-08-18T00:29:06;12.63;;;11.33;;
8327;SDS011;4201;48.754;8.864;2022-08-18T00:31:33;12.40;;;11.20;;
8327;SDS011;4201;48.754;8.864;2022-08-18T00:34:00;14.00;;;11.57;;
8327;SDS011;4201;48.754;8.864;2022-08-18T00:36:27;11.70;;;9.90;;
8327;SDS011;4201;48.754;8.864;2022-08-18T00:38:55;11.80;;;10.60;;
8327;SDS011;4201;48.754;8.864;2022-08-18T00:41:21;12.00;;;10.70;;
8327;SDS011;4201;48.754;8.864;2022-08-18T00:43:51;12.07;;;10.73;;
8327;SDS011;4201;48.754;8.864;2022-08-18T00:46:19;13.13;;;11.20;;
8327;SDS011;4201;48.754;8.864;2022-08-18T00:48:46;11.97;;;10.87;;
8327;SDS011;4201;48.754;8.864;2022-08-18T00:51:14;11.80;;;10.60;;
8327;SDS011;4201;48.754;8.864;2022-08-18T00:53:43;12.93;;;10.80;;
8327;SDS011;4201;48.754;8.864;2022-08-18T00:56:12;11.63;;;10.63;;
8327;SDS011;4201;48.754;8.864;2022-08-18T00:58:40;17.40;;;12.03;;
8327;SDS011;4201;48.754;8.864;2022-08-18T01:01:07;13.90;;;10.50;;
8327;SDS011;4201;48.754;8.864;2022-08-18T01:03:34;11.97;;;10.70;;
8327;SDS011;4201;48.754;8.864;2022-08-18T01:06:04;17.53;;;11.77;;
8327;SDS011;4201;48.754;8.864;2022-08-18T01:08:33;12.50;;;11.00;;
8327;SDS011;4201;48.754;8.864;2022-08-18T01:11:00;12.50;;;11.30;;
8327;SDS011;4201;48.754;8.864;2022-08-18T01:13:27;12.63;;;11.33;;
8327;SDS011;4201;48.754;8.864;2022-08-18T01:15:54;13.73;;;12.30;;
8327;SDS011;4201;48.754;8.864;2022-08-18T01:18:20;13.77;;;11.40;;
8327;SDS011;4201;48.754;8.864;2022-08-18T01:21:14;11.43;;;10.23;;
8327;SDS011;4201;48.754;8.864;2022-08-18T01:24:09;13.47;;;12.17;;
8327;SDS011;4201;48.754;8.864;2022-08-18T01:26:37;13.17;;;11.87;;
8327;SDS011;4201;48.754;8.864;2022-08-18T01:29:03;13.07;;;10.97;;
8327;SDS011;4201;48.754;8.864;2022-08-18T01:31:31;13.70;;;10.60;;
8327;SDS011;4201;48.754;8.864;2022-08-18T01:34:02;12.37;;;11.17;;
8327;SDS011;4201;48.754;8.864;2022-08-18T01:36:28;14.07;;;12.77;;
8327;SDS011;4201;48.754;8.864;2022-08-18T01:38:55;13.40;;;12.00;;
8327;SDS011;4201;48.754;8.864;2022-08-18T01:41:23;13.17;;;11.97;;
8327;SDS011;4201;48.754;8.864;2022-08-18T01:43:50;11.47;;;10.27;;
8327;SDS011;4201;48.754;8.864;2022-08-18T01:46:16;11.87;;;10.77;;
8327;SDS011;4201;48.754;8.864;2022-08-18T01:48:44;15.77;;;11.33;;
8327;SDS011;4201;48.754;8.864;2022-08-18T01:51:10;15.37;;;11.97;;
8327;SDS011;4201;48.754;8.864;2022-08-18T01:53:37;15.37;;;13.20;;
8327;SDS011;4201;48.754;8.864;2022-08-18T01:56:04;14.03;;;12.63;;
8327;SDS011;4201;48.754;8.864;2022-08-18T01:58:32;15.93;;;12.10;;
8327;SDS011;4201;48.754;8.864;2022-08-18T02:00:59;13.47;;;11.50;;
8327;SDS011;4201;48.754;8.864;2022-08-18T02:03:27;15.57;;;13.03;;
8327;SDS011;4201;48.754;8.864;2022-08-18T02:05:55;13.67;;;12.37;;
8327;SDS011;4201;48.754;8.864;2022-08-18T02:08:23;12.33;;;11.10;;
8327;SDS011;4201;48.754;8.864;2022-08-18T02:10:50;14.17;;;12.83;;
8327;SDS011;4201;48.754;8.864;2022-08-18T02:13:16;13.33;;;12.00;;
8327;SDS011;4201;48.754;8.864;2022-08-18T02:15:44;18.43;;;12.20;;
8327;SDS011;4201;48.754;8.864;2022-08-18T02:18:12;13.90;;;12.50;;
8327;SDS011;4201;48.754;8.864;2022-08-18T02:20:38;13.70;;;12.40;;
8327;SDS011;4201;48.754;8.864;2022-08-18T02:23:05;12.23;;;11.03;;
8327;SDS011;4201;48.754;8.864;2022-08-18T02:25:31;12.57;;;11.27;;
8327;SDS011;4201;48.754;8.864;2022-08-18T02:27:57;16.77;;;12.80;;
8327;SDS011;4201;48.754;8.864;2022-08-18T02:30:23;14.17;;;12.73;;
8327;SDS011;4201;48.754;8.864;2022-08-18T02:32:51;13.10;;;11.83;;
8327;SDS011;4201;48.754;8.864;2022-08-18T02:35:17;12.20;;;10.97;;
8327;SDS011;4201;48.754;8.864;2022-08-18T02:37:44;12.30;;;10.90;;
8327;SDS011;4201;48.754;8.864;2022-08-18T02:40:12;11.50;;;10.10;;
8327;SDS011;4201;48.754;8.864;2022-08-18T02:42:38;12.80;;;11.50;;
8327;SDS011;4201;48.754;8.864;2022-08-18T02:45:05;15.90;;;10.93;;
8327;SDS011;4201;48.754;8.864;2022-08-18T02:47:32;12.97;;;11.67;;
8327;SDS011;4201;48.754;8.864;2022-08-18T02:49:59;12.27;;;11.07;;
8327;SDS011;4201;48.754;8.864;2022-08-18T02:52:26;12.80;;;11.53;;
8327;SDS011;4201;48.754;8.864;2022-08-18T02:54:56;15.60;;;12.07;;
8327;SDS011;4201;48.754;8.864;2022-08-18T02:57:22;13.63;;;12.13;;
8327;SDS011;4201;48.754;8.864;2022-08-18T02:59:49;14.23;;;12.73;;
8327;SDS011;4201;48.754;8.864;2022-08-18T03:02:15;14.07;;;12.60;;
8327;SDS011;4201;48.754;8.864;2022-08-18T03:04:42;13.93;;;12.53;;
8327;SDS011;4201;48.754;8.864;2022-08-18T03:07:10;14.43;;;11.83;;
8327;SDS011;4201;48.754;8.864;2022-08-18T03:09:36;12.77;;;11.47;;
8327;SDS011;4201;48.754;8.864;2022-08-18T03:12:03;13.20;;;11.00;;
8327;SDS011;4201;48.754;8.864;2022-08-18T03:14:31;12.37;;;11.07;;
8327;SDS011;4201;48.754;8.864;2022-08-18T03:16:57;12.90;;;11.60;;
8327;SDS011;4201;48.754;8.864;2022-08-18T03:19:24;14.20;;;11.27;;
8327;SDS011;4201;48.754;8.864;2022-08-18T03:21:52;12.80;;;10.80;;
8327;SDS011;4201;48.754;8.864;2022-08-18T03:24:20;13.00;;;11.70;;
8327;SDS011;4201;48.754;8.864;2022-08-18T03:26:47;12.47;;;11.27;;
8327;SDS011;4201;48.754;8.864;2022-08-18T03:29:13;14.17;;;12.83;;
8327;SDS011;4201;48.754;8.864;2022-08-18T03:31:39;14.70;;;13.20;;
8327;SDS011;4201;48.754;8.864;2022-08-18T03:34:08;14.43;;;12.93;;
8327;SDS011;4201;48.754;8.864;2022-08-18T03:36:35;15.00;;;13.50;;
8327;SDS011;4201;48.754;8.864;2022-08-18T03:39:02;15.23;;;11.80;;
8327;SDS011;4201;48.754;8.864;2022-08-18T03:41:30;14.50;;;13.17;;
8327;SDS011;4201;48.754;8.864;2022-08-18T03:43:57;18.27;;;14.27;;
8327;SDS011;4201;48.754;8.864;2022-08-18T03:46:23;14.47;;;12.93;;
8327;SDS011;4201;48.754;8.864;2022-08-18T03:48:50;14.60;;;13.10;;
8327;SDS011;4201;48.754;8.864;2022-08-18T03:51:17;15.27;;;13.70;;
8327;SDS011;4201;48.754;8.864;2022-08-18T03:53:46;14.63;;;13.13;;
8327;SDS011;4201;48.754;8.864;2022-08-18T03:56:14;15.30;;;13.90;;
8327;SDS011;4201;48.754;8.864;2022-08-18T03:58:42;15.50;;;14.00;;
8327;SDS011;4201;48.754;8.864;2022-08-18T04:01:09;14.93;;;13.30;;
8327;SDS011;4201;48.754;8.864;2022-08-18T04:03:37;14.73;;;12.77;;
8327;SDS011;4201;48.754;8.864;2022-08-18T04:06:03;14.13;;;12.73;;
8327;SDS011;4201;48.754;8.864;2022-08-18T04:08:29;13.93;;;12.30;;
8327;SDS011;4201;48.754;8.864;2022-08-18T04:10:56;13.10;;;11.80;;
8327;SDS011;4201;48.754;8.864;2022-08-18T04:13:22;14.13;;;12.73;;
8327;SDS011;4201;48.754;8.864;2022-08-18T04:15:50;14.50;;;13.23;;
8327;SDS011;4201;48.754;8.864;2022-08-18T04:18:16;17.07;;;15.23;;
8327;SDS011;4201;48.754;8.864;2022-08-18T04:20:43;14.00;;;12.30;;
8327;SDS011;4201;48.754;8.864;2022-08-18T04:23:10;16.83;;;15.17;;
8327;SDS011;4201;48.754;8.864;2022-08-18T04:25:38;16.37;;;14.77;;
8327;SDS011;4201;48.754;8.864;2022-08-18T04:28:04;15.33;;;13.60;;
8327;SDS011;4201;48.754;8.864;2022-08-18T04:30:31;16.50;;;14.30;;
8327;SDS011;4201;48.754;8.864;2022-08-18T04:33:00;15.50;;;13.90;;
8327;SDS011;4201;48.754;8.864;2022-08-18T04:35:30;12.83;;;11.53;;
8327;SDS011;4201;48.754;8.864;2022-08-18T04:37:56;16.30;;;14.80;;
8327;SDS011;4201;48.754;8.864;2022-08-18T04:40:22;14.90;;;13.40;;
8327;SDS011;4201;48.754;8.864;2022-08-18T04:42:51;15.37;;;13.77;;
8327;SDS011;4201;48.754;8.864;2022-08-18T04:45:17;14.90;;;13.57;;
8327;SDS011;4201;48.754;8.864;2022-08-18T04:47:43;15.40;;;13.80;;
8327;SDS011;4201;48.754;8.864;2022-08-18T04:50:11;15.63;;;14.03;;
8327;SDS011;4201;48.754;8.864;2022-08-18T04:52:37;14.33;;;13.03;;
8327;SDS011;4201;48.754;8.864;2022-08-18T04:55:21;14.13;;;12.63;;
8327;SDS011;4201;48.754;8.864;2022-08-18T04:57:48;15.07;;;13.43;;
8327;SDS011;4201;48.754;8.864;2022-08-18T05:00:14;13.30;;;12.00;;
8327;SDS011;4201;48.754;8.864;2022-08-18T05:02:41;13.63;;;11.80;;
8327;SDS011;4201;48.754;8.864;2022-08-18T05:05:08;13.33;;;11.97;;
8327;SDS011;4201;48.754;8.864;2022-08-18T05:07:36;16.50;;;12.20;;
8327;SDS011;4201;48.754;8.864;2022-08-18T05:10:08;12.00;;;10.90;;
8327;SDS011;4201;48.754;8.864;2022-08-18T05:12:36;17.47;;;12.03;;
8327;SDS011;4201;48.754;8.864;2022-08-18T05:15:05;12.33;;;10.90;;
8327;SDS011;4201;48.754;8.864;2022-08-18T05:17:32;14.73;;;11.10;;
8327;SDS011;4201;48.754;8.864;2022-08-18T05:20:03;13.47;;;12.07;;
8327;SDS011;4201;48.754;8.864;2022-08-18T05:22:30;12.70;;;11.50;;
8327;SDS011;4201;48.754;8.864;2022-08-18T05:25:02;12.77;;;11.53;;
8327;SDS011;4201;48.754;8.864;2022-08-18T05:27:32;13.50;;;12.13;;
8327;SDS011;4201;48.754;8.864;2022-08-18T05:29:59;12.90;;;11.60;;
8327;SDS011;4201;48.754;8.864;2022-08-18T05:32:26;12.67;;;11.13;;
8327;SDS011;4201;48.754;8.864;2022-08-18T05:34:55;12.93;;;11.10;;
8327;SDS011;4201;48.754;8.864;2022-08-18T05:37:22;11.70;;;10.60;;
8327;SDS011;4201;48.754;8.864;2022-08-18T05:39:53;11.43;;;10.23;;
8327;SDS011;4201;48.754;8.864;2022-08-18T05:42:23;10.37;;;9.20;;
8327;SDS011;4201;48.754;8.864;2022-08-18T05:44:51;12.37;;;11.00;;
8327;SDS011;4201;48.754;8.864;2022-08-18T05:47:18;11.47;;;10.47;;
8327;SDS011;4201;48.754;8.864;2022-08-18T05:49:47;11.87;;;9.83;;
8327;SDS011;4201;48.754;8.864;2022-08-18T05:52:15;12.20;;;10.90;;
8327;SDS011;4201;48.754;8.864;2022-08-18T05:54:44;13.00;;;11.67;;
8327;SDS011;4201;48.754;8.864;2022-08-18T05:57:30;15.40;;;11.10;;
8327;SDS011;4201;48.754;8.864;2022-08-18T05:59:57;16.60;;;13.40;;
8327;SDS011;4201;48.754;8.864;2022-08-18T06:02:26;14.50;;;13.00;;
8327;SDS011;4201;48.754;8.864;2022-08-18T06:04:54;16.03;;;13.43;;
8327;SDS011;4201;48.754;8.864;2022-08-18T06:07:23;13.93;;;12.53;;
8327;SDS011;4201;48.754;8.864;2022-08-18T06:09:52;13.53;;;11.50;;
8327;SDS011;4201;48.754;8.864;2022-08-18T06:12:21;15.43;;;13.87;;
8327;SDS011;4201;48.754;8.864;2022-08-18T06:14:50;14.87;;;13.37;;
8327;SDS011;4201;48.754;8.864;2022-08-18T06:17:22;13.60;;;11.97;;
8327;SDS011;4201;48.754;8.864;2022-08-18T06:19:55;11.77;;;10.50;;
8327;SDS011;4201;48.754;8.864;2022-08-18T06:22:27;11.47;;;9.90;;
8327;SDS011;4201;48.754;8.864;2022-08-18T06:24:57;14.47;;;10.90;;
8327;SDS011;4201;48.754;8.864;2022-08-18T06:27:27;10.73;;;9.73;;
8327;SDS011;4201;48.754;8.864;2022-08-18T06:30:00;10.57;;;9.47;;
8327;SDS011;4201;48.754;8.864;2022-08-18T06:32:32;10.83;;;9.23;;
8327;SDS011;4201;48.754;8.864;2022-08-18T06:35:05;11.20;;;10.10;;
8327;SDS011;4201;48.754;8.864;2022-08-18T06:37:35;14.50;;;11.17;;
8327;SDS011;4201;48.754;8.864;2022-08-18T06:40:24;14.07;;;11.50;;
8327;SDS011;4201;48.754;8.864;2022-08-18T06:42:50;10.70;;;9.60;;
8327;SDS011;4201;48.754;8.864;2022-08-18T06:45:18;11.83;;;10.67;;
8327;SDS011;4201;48.754;8.864;2022-08-18T06:47:49;14.00;;;11.67;;
8327;SDS011;4201;48.754;8.864;2022-08-18T06:50:19;11.23;;;10.00;;
8327;SDS011;4201;48.754;8.864;2022-08-18T06:52:52;12.10;;;10.73;;
8327;SDS011;4201;48.754;8.864;2022-08-18T06:55:31;11.73;;;9.90;;
8327;SDS011;4201;48.754;8.864;2022-08-18T06:57:58;12.50;;;10.57;;
8327;SDS011;4201;48.754;8.864;2022-08-18T07:00:27;11.40;;;10.30;;
8327;SDS011;4201;48.754;8.864;2022-08-18T07:02:54;11.60;;;10.50;;
8327;SDS011;4201;48.754;8.864;2022-08-18T07:05:23;10.90;;;9.90;;
8327;SDS011;4201;48.754;8.864;2022-08-18T07:08:07;11.90;;;9.90;;
8327;SDS011;4201;48.754;8.864;2022-08-18T07:10:36;10.40;;;9.40;;
8327;SDS011;4201;48.754;8.864;2022-08-18T07:13:07;11.67;;;10.17;;
8327;SDS011;4201;48.754;8.864;2022-08-18T07:15:34;14.30;;;11.20;;
8327;SDS011;4201;48.754;8.864;2022-08-18T07:18:02;10.00;;;9.03;;
8327;SDS011;4201;48.754;8.864;2022-08-18T07:20:30;11.27;;;9.97;;
8327;SDS011;4201;48.754;8.864;2022-08-18T07:22:57;11.23;;;10.13;;
8327;SDS011;4201;48.754;8.864;2022-08-18T07:25:25;11.10;;;10.00;;
8327;SDS011;4201;48.754;8.864;2022-08-18T07:27:52;12.73;;;10.20;;
8327;SDS011;4201;48.754;8.864;2022-08-18T07:30:25;10.67;;;9.67;;
8327;SDS011;4201;48.754;8.864;2022-08-18T07:32:55;10.90;;;9.80;;
8327;SDS011;4201;48.754;8.864;2022-08-18T07:35:23;12.27;;;11.20;;
8327;SDS011;4201;48.754;8.864;2022-08-18T07:37:52;11.83;;;10.73;;
8327;SDS011;4201;48.754;8.864;2022-08-18T07:40:21;11.50;;;10.27;;
8327;SDS011;4201;48.754;8.864;2022-08-18T07:42:50;11.47;;;10.13;;
8327;SDS011;4201;48.754;8.864;2022-08-18T07:45:20;11.60;;;10.40;;
8327;SDS011;4201;48.754;8.864;2022-08-18T07:47:48;11.97;;;10.60;;
8327;SDS011;4201;48.754;8.864;2022-08-18T07:50:16;14.20;;;12.70;;
8327;SDS011;4201;48.754;8.864;2022-08-18T07:52:43;13.53;;;12.23;;
8327;SDS011;4201;48.754;8.864;2022-08-18T07:55:17;14.10;;;12.60;;
8327;SDS011;4201;48.754;8.864;2022-08-18T07:57:46;13.93;;;12.30;;
8327;SDS011;4201;48.754;8.864;2022-08-18T08:00:19;13.13;;;11.83;;
8327;SDS011;4201;48.754;8.864;2022-08-18T08:02:49;15.07;;;11.97;;
8327;SDS011;4201;48.754;8.864;2022-08-18T08:05:33;10.90;;;9.80;;
8327;SDS011;4201;48.754;8.864;2022-08-18T08:08:01;11.63;;;10.53;;
8327;SDS011;4201;48.754;8.864;2022-08-18T08:10:32;9.93;;;8.93;;
8327;SDS011;4201;48.754;8.864;2022-08-18T08:13:04;10.73;;;9.57;;
8327;SDS011;4201;48.754;8.864;2022-08-18T08:15:35;11.80;;;10.70;;
8327;SDS011;4201;48.754;8.864;2022-08-18T08:18:07;11.93;;;10.63;;
8327;SDS011;4201;48.754;8.864;2022-08-18T08:20:38;12.50;;;11.20;;
8327;SDS011;4201;48.754;8.864;2022-08-18T08:23:08;16.00;;;12.57;;
8327;SDS011;4201;48.754;8.864;2022-08-18T08:25:41;13.73;;;12.43;;
8327;SDS011;4201;48.754;8.864;2022-08-18T08:28:12;13.73;;;12.43;;
8327;SDS011;4201;48.754;8.864;2022-08-18T08:30:43;13.23;;;11.10;;
8327;SDS011;4201;48.754;8.864;2022-08-18T08:33:15;13.37;;;12.03;;
8327;SDS011;4201;48.754;8.864;2022-08-18T08:35:45;14.03;;;12.53;;
8327;SDS011;4201;48.754;8.864;2022-08-18T08:38:15;13.83;;;12.43;;
8327;SDS011;4201;48.754;8.864;2022-08-18T08:40:44;13.90;;;12.57;;
8327;SDS011;4201;48.754;8.864;2022-08-18T08:43:13;12.00;;;10.80;;
8327;SDS011;4201;48.754;8.864;2022-08-18T08:45:41;12.30;;;10.87;;
8327;SDS011;4201;48.754;8.864;2022-08-18T08:48:11;13.10;;;11.90;;
8327;SDS011;4201;48.754;8.864;2022-08-18T08:50:40;14.73;;;13.33;;
8327;SDS011;4201;48.754;8.864;2022-08-18T08:53:13;14.07;;;12.57;;
8327;SDS011;4201;48.754;8.864;2022-08-18T08:55:42;14.87;;;13.47;;
8327;SDS011;4201;48.754;8.864;2022-08-18T08:58:13;13.60;;;12.10;;
8327;SDS011;4201;48.754;8.864;2022-08-18T09:00:41;12.37;;;11.20;;
8327;SDS011;4201;48.754;8.864;2022-08-18T09:03:11;13.00;;;11.70;;
8327;SDS011;4201;48.754;8.864;2022-08-18T09:05:43;12.23;;;11.10;;
8327;SDS011;4201;48.754;8.864;2022-08-18T09:13:45;12.50;;;11.20;;
8327;SDS011;4201;48.754;8.864;2022-08-18T09:16:19;12.03;;;10.80;;
8327;SDS011;4201;48.754;8.864;2022-08-18T09:18:49;12.80;;;11.57;;
8327;SDS011;4201;48.754;8.864;2022-08-18T09:21:18;13.63;;;12.00;;
8327;SDS011;4201;48.754;8.864;2022-08-18T09:23:46;15.13;;;13.20;;
8327;SDS011;4201;48.754;8.864;2022-08-18T09:26:24;13.80;;;12.40;;
8327;SDS011;4201;48.754;8.864;2022-08-18T09:28:54;15.10;;;12.73;;
8327;SDS011;4201;48.754;8.864;2022-08-18T09:31:23;15.80;;;14.10;;
8327;SDS011;4201;48.754;8.864;2022-08-18T09:36:42;14.50;;;13.07;;
8327;SDS011;4201;48.754;8.864;2022-08-18T09:39:18;16.47;;;14.97;;
8327;SDS011;4201;48.754;8.864;2022-08-18T09:42:06;13.30;;;12.10;;
8327;SDS011;4201;48.754;8.864;2022-08-18T09:52:46;14.57;;;13.17;;
8327;SDS011;4201;48.754;8.864;2022-08-18T10:00:36;12.70;;;11.50;;
8327;SDS011;4201;48.754;8.864;2022-08-18T10:03:03;12.40;;;11.20;;
8327;SDS011;4201;48.754;8.864;2022-08-18T10:05:36;15.10;;;13.70;;
8327;SDS011;4201;48.754;8.864;2022-08-18T10:10:50;14.37;;;12.87;;
8327;SDS011;4201;48.754;8.864;2022-08-18T10:13:20;13.33;;;12.07;;
8327;SDS011;4201;48.754;8.864;2022-08-18T10:15:50;13.50;;;12.13;;
8327;SDS011;4201;48.754;8.864;2022-08-18T10:18:27;14.13;;;12.73;;
8327;SDS011;4201;48.754;8.864;2022-08-18T10:21:01;14.47;;;13.00;;
8327;SDS011;4201;48.754;8.864;2022-08-18T10:23:46;13.93;;;12.23;;
8327;SDS011;4201;48.754;8.864;2022-08-18T10:28:59;20.10;;;12.27;;
8327;SDS011;4201;48.754;8.864;2022-08-18T10:31:27;17.67;;;13.00;;
8327;SDS011;4201;48.754;8.864;2022-08-18T10:33:55;15.90;;;12.10;;
8327;SDS011;4201;48.754;8.864;2022-08-18T10:36:36;15.10;;;13.60;;
8327;SDS011;4201;48.754;8.864;2022-08-18T10:39:04;15.23;;;13.60;;
8327;SDS011;4201;48.754;8.864;2022-08-18T10:41:30;15.87;;;14.17;;
8327;SDS011;4201;48.754;8.864;2022-08-18T10:44:00;15.47;;;14.00;;
8327;SDS011;4201;48.754;8.864;2022-08-18T10:46:28;18.37;;;15.17;;
8327;SDS011;4201;48.754;8.864;2022-08-18T10:48:58;14.67;;;12.47;;
8327;SDS011;4201;48.754;8.864;2022-08-18T10:51:26;15.10;;;13.60;;
8327;SDS011;4201;48.754;8.864;2022-08-18T10:53:57;15.40;;;13.90;;
8327;SDS011;4201;48.754;8.864;2022-08-18T10:56:27;15.07;;;13.63;;
8327;SDS011;4201;48.754;8.864;2022-08-18T10:59:00;14.07;;;12.83;;
8327;SDS011;4201;48.754;8.864;2022-08-18T11:01:33;15.90;;;14.37;;
8327;SDS011;4201;48.754;8.864;2022-08-18T11:04:04;16.10;;;14.57;;
8327;SDS011;4201;48.754;8.864;2022-08-18T11:06:36;18.27;;;15.67;;
8327;SDS011;4201;48.754;8.864;2022-08-18T11:09:03;15.03;;;13.57;;
8327;SDS011;4201;48.754;8.864;2022-08-18T11:11:30;16.23;;;14.63;;
8327;SDS011;4201;48.754;8.864;2022-08-18T11:14:01;17.23;;;15.70;;
8327;SDS011;4201;48.754;8.864;2022-08-18T11:16:33;15.00;;;13.60;;
8327;SDS011;4201;48.754;8.864;2022-08-18T11:19:03;15.87;;;14.30;;
8327;SDS011;4201;48.754;8.864;2022-08-18T11:21:31;14.87;;;13.57;;
8327;SDS011;4201;48.754;8.864;2022-08-18T11:24:02;14.00;;;12.70;;
8327;SDS011;4201;48.754;8.864;2022-08-18T11:26:29;14.50;;;13.10;;
8327;SDS011;4201;48.754;8.864;2022-08-18T11:28:56;15.43;;;13.80;;
8327;SDS011;4201;48.754;8.864;2022-08-18T11:31:23;14.73;;;13.20;;
8327;SDS011;4201;48.754;8.864;2022-08-18T11:33:50;14.43;;;12.80;;
8327;SDS011;4201;48.754;8.864;2022-08-18T11:36:16;15.63;;;14.13;;
8327;SDS011;4201;48.754;8.864;2022-08-18T11:38:51;16.23;;;14.13;;
8327;SDS011;4201;48.754;8.864;2022-08-18T11:41:19;15.90;;;14.20;;
8327;SDS011;4201;48.754;8.864;2022-08-18T11:43:53;16.63;;;13.60;;
8327;SDS011;4201;48.754;8.864;2022-08-18T11:46:21;12.83;;;11.67;;
8327;SDS011;4201;48.754;8.864;2022-08-18T11:48:50;13.13;;;11.83;;
8327;SDS011;4201;48.754;8.864;2022-08-18T11:51:19;13.57;;;12.23;;
8327;SDS011;4201;48.754;8.864;2022-08-18T11:53:51;15.57;;;14.10;;
8327;SDS011;4201;48.754;8.864;2022-08-18T11:56:20;13.40;;;12.20;;
8327;SDS011;4201;48.754;8.864;2022-08-18T11:58:49;15.23;;;13.73;;
8327;SDS011;4201;48.754;8.864;2022-08-18T12:01:27;13.60;;;12.30;;
8327;SDS011;4201;48.754;8.864;2022-08-18T12:03:56;15.50;;;13.77;;
8327;SDS011;4201;48.754;8.864;2022-08-18T12:06:24;15.07;;;12.20;;
8327;SDS011;4201;48.754;8.864;2022-08-18T12:08:55;15.90;;;14.30;;
8327;SDS011;4201;48.754;8.864;2022-08-18T12:11:23;17.60;;;13.77;;
8327;SDS011;4201;48.754;8.864;2022-08-18T12:13:56;15.63;;;13.93;;
8327;SDS011;4201;48.754;8.864;2022-08-18T12:16:29;15.47;;;12.37;;
8327;SDS011;4201;48.754;8.864;2022-08-18T12:18:58;16.50;;;12.60;;
8327;SDS011;4201;48.754;8.864;2022-08-18T12:21:24;13.20;;;11.90;;
8327;SDS011;4201;48.754;8.864;2022-08-18T12:23:50;11.90;;;10.60;;
8327;SDS011;4201;48.754;8.864;2022-08-18T12:26:17;15.57;;;12.67;;
8327;SDS011;4201;48.754;8.864;2022-08-18T12:28:44;13.13;;;11.93;;
8327;SDS011;4201;48.754;8.864;2022-08-18T12:31:10;14.83;;;11.90;;
8327;SDS011;4201;48.754;8.864;2022-08-18T12:33:36;14.73;;;12.10;;
8327;SDS011;4201;48.754;8.864;2022-08-18T12:36:04;12.73;;;11.17;;
8327;SDS011;4201;48.754;8.864;2022-08-18T12:38:31;13.90;;;11.93;;
8327;SDS011;4201;48.754;8.864;2022-08-18T12:40:58;12.70;;;11.60;;
8327;SDS011;4201;48.754;8.864;2022-08-18T12:43:24;14.13;;;11.83;;
8327;SDS011;4201;48.754;8.864;2022-08-18T12:45:51;11.90;;;10.70;;
8327;SDS011;4201;48.754;8.864;2022-08-18T12:48:17;11.83;;;10.60;;
8327;SDS011;4201;48.754;8.864;2022-08-18T12:50:43;11.60;;;10.50;;
8327;SDS011;4201;48.754;8.864;2022-08-18T12:53:11;11.63;;;10.53;;
8327;SDS011;4201;48.754;8.864;2022-08-18T12:55:39;13.67;;;10.90;;
8327;SDS011;4201;48.754;8.864;2022-08-18T12:58:06;11.77;;;10.67;;
8327;SDS011;4201;48.754;8.864;2022-08-18T13:00:32;11.97;;;10.87;;
8327;SDS011;4201;48.754;8.864;2022-08-18T13:02:59;12.83;;;11.43;;
8327;SDS011;4201;48.754;8.864;2022-08-18T13:05:25;11.67;;;10.50;;
8327;SDS011;4201;48.754;8.864;2022-08-18T13:07:52;12.57;;;11.30;;
8327;SDS011;4201;48.754;8.864;2022-08-18T13:10:20;10.43;;;9.30;;
8327;SDS011;4201;48.754;8.864;2022-08-18T13:12:46;10.50;;;8.80;;
8327;SDS011;4201;48.754;8.864;2022-08-18T13:15:12;8.87;;;6.93;;
8327;SDS011;4201;48.754;8.864;2022-08-18T13:17:38;9.87;;;8.43;;
8327;SDS011;4201;48.754;8.864;2022-08-18T13:20:06;8.23;;;7.43;;
8327;SDS011;4201;48.754;8.864;2022-08-18T13:22:33;8.20;;;7.50;;
8327;SDS011;4201;48.754;8.864;2022-08-18T13:25:00;8.00;;;7.20;;
8327;SDS011;4201;48.754;8.864;2022-08-18T13:27:27;9.23;;;8.40;;
8327;SDS011;4201;48.754;8.864;2022-08-18T13:29:54;9.90;;;7.83;;
8327;SDS011;4201;48.754;8.864;2022-08-18T13:32:20;9.40;;;8.40;;
8327;SDS011;4201;48.754;8.864;2022-08-18T13:34:46;8.87;;;7.67;;
8327;SDS011;4201;48.754;8.864;2022-08-18T13:37:12;9.33;;;8.53;;
8327;SDS011;4201;48.754;8.864;2022-08-18T13:39:39;10.20;;;7.97;;
8327;SDS011;4201;48.754;8.864;2022-08-18T13:42:05;8.57;;;7.80;;
8327;SDS011;4201;48.754;8.864;2022-08-18T13:44:33;9.30;;;8.30;;
8327;SDS011;4201;48.754;8.864;2022-08-18T13:46:59;10.50;;;9.50;;
8327;SDS011;4201;48.754;8.864;2022-08-18T13:49:25;11.07;;;9.40;;
8327;SDS011;4201;48.754;8.864;2022-08-18T13:51:52;9.13;;;8.33;;
8327;SDS011;4201;48.754;8.864;2022-08-18T13:54:23;12.23;;;10.10;;
8327;SDS011;4201;48.754;8.864;2022-08-18T13:56:50;10.13;;;9.13;;
8327;SDS011;4201;48.754;8.864;2022-08-18T13:59:17;11.23;;;9.40;;
8327;SDS011;4201;48.754;8.864;2022-08-18T14:01:46;10.13;;;9.13;;
8327;SDS011;4201;48.754;8.864;2022-08-18T14:04:12;10.27;;;9.03;;
8327;SDS011;4201;48.754;8.864;2022-08-18T14:06:39;10.57;;;9.57;;
8327;SDS011;4201;48.754;8.864;2022-08-18T14:09:05;10.40;;;9.40;;
8327;SDS011;4201;48.754;8.864;2022-08-18T14:11:33;10.23;;;8.60;;
8327;SDS011;4201;48.754;8.864;2022-08-18T14:14:01;8.93;;;8.10;;
8327;SDS011;4201;48.754;8.864;2022-08-18T14:16:28;9.90;;;8.90;;
8327;SDS011;4201;48.754;8.864;2022-08-18T14:18:56;9.30;;;8.40;;
8327;SDS011;4201;48.754;8.864;2022-08-18T14:21:41;10.20;;;8.90;;
8327;SDS011;4201;48.754;8.864;2022-08-18T14:24:25;12.03;;;8.50;;
8327;SDS011;4201;48.754;8.864;2022-08-18T14:27:09;9.13;;;8.20;;
8327;SDS011;4201;48.754;8.864;2022-08-18T14:29:35;13.97;;;8.50;;
8327;SDS011;4201;48.754;8.864;2022-08-18T14:32:02;9.90;;;8.00;;
8327;SDS011;4201;48.754;8.864;2022-08-18T14:34:30;9.83;;;8.90;;
8327;SDS011;4201;48.754;8.864;2022-08-18T14:36:56;10.13;;;9.13;;
8327;SDS011;4201;48.754;8.864;2022-08-18T14:39:22;9.13;;;8.10;;
8327;SDS011;4201;48.754;8.864;2022-08-18T14:41:48;10.40;;;9.10;;
8327;SDS011;4201;48.754;8.864;2022-08-18T14:44:15;9.37;;;8.37;;
8327;SDS011;4201;48.754;8.864;2022-08-18T14:46:41;13.87;;;9.53;;
8327;SDS011;4201;48.754;8.864;2022-08-18T14:49:11;10.00;;;9.10;;
8327;SDS011;4201;48.754;8.864;2022-08-18T14:51:38;10.53;;;9.53;;
8327;SDS011;4201;48.754;8.864;2022-08-18T14:54:07;11.13;;;10.00;;
8327;SDS011;4201;48.754;8.864;2022-08-18T14:56:33;9.67;;;8.67;;
8327;SDS011;4201;48.754;8.864;2022-08-18T14:58:59;11.60;;;8.90;;
8327;SDS011;4201;48.754;8.864;2022-08-18T15:01:26;12.10;;;9.60;;
8327;SDS011;4201;48.754;8.864;2022-08-18T15:03:52;10.80;;;9.70;;
8327;SDS011;4201;48.754;8.864;2022-08-18T15:06:18;10.87;;;9.40;;
8327;SDS011;4201;48.754;8.864;2022-08-18T15:08:46;11.87;;;9.93;;
8327;SDS011;4201;48.754;8.864;2022-08-18T15:11:12;12.57;;;10.20;;
8327;SDS011;4201;48.754;8.864;2022-08-18T15:13:40;11.10;;;10.00;;
8327;SDS011;4201;48.754;8.864;2022-08-18T15:16:07;13.00;;;10.47;;
8327;SDS011;4201;48.754;8.864;2022-08-18T15:18:37;10.93;;;8.93;;
8327;SDS011;4201;48.754;8.864;2022-08-18T15:21:03;14.60;;;9.97;;
8327;SDS011;4201;48.754;8.864;2022-08-18T15:23:48;11.30;;;10.13;;
8327;SDS011;4201;48.754;8.864;2022-08-18T15:26:32;10.60;;;9.50;;
8327;SDS011;4201;48.754;8.864;2022-08-18T15:28:59;12.00;;;9.30;;